Terminal Aerodrome Forecast
Issued by NWS Atlanta, GA

Home | Current Version | Previous Version | Text Only | Print | Product List | Glossary On
Versions: 1 2 3 4 5 6 7 8 9 10 11 12 13 14 15 16 17 18 19 20 21 22 23 24 25 26 27 28 29 30 31 32 33 34 35 36 37 38 39 40
000
FTUS42 KFFC 221900 AAA
TAFATL
TAF AMD
KATL 221950Z 2220/2324 11006KT P6SM VCSH SCT030 BKN050
      TEMPO 2220/2223 4SM -SHRA BKN030
     FM230000 09005KT P6SM SCT035 BKN080
     FM230900 13003KT P6SM BKN006
     FM231400 27003KT P6SM BKN020
     FM231700 25007KT P6SM VCSH SCT035 BKN050 PROB30 2319/2323 4SM
      -TSRA BR BKN035CB=

USA.gov is the U.S. government's official web portal to all federal, state and local government web resources and services.